Time;durP1;ratioP1;P1;durP2;ratioP2;P2;SDS_P1;SDS_P2;PMS_P1;PMS_P2;Temp;Humidity;BMP_temperature;BMP_pressure;BME280_temperature;BME280_humidity;BME280_pressure;Samples;Min_cycle;Max_cycle;Signal;HPM_P1;HPM_P2
2022/10/24 00:01:17;;;;;;;;;;;17.60;67.50;;;13.82;100.00;95403.97;4998112;28;19917;-52
2022/10/24 00:03:52;;;;;;;;;;;17.70;67.60;;;13.88;99.66;95400.94;4991152;28;19914;-49
2022/10/24 00:06:19;;;;;;;;;;;17.70;67.60;;;14.00;99.28;95413.09;4979695;28;19956;-53
2022/10/24 00:08:46;;;;;;;;;;;17.80;67.60;;;14.05;97.76;95413.03;4992040;28;19913;-51
2022/10/24 00:11:24;;;;;;;;;;;17.80;67.60;;;14.11;98.26;95426.03;4971709;28;19960;-50
2022/10/24 00:13:51;;;;;;;;;;;17.90;67.60;;;14.14;97.57;95423.88;4979251;28;20016;-49
2022/10/24 00:16:23;;;;;;;;;;;17.90;67.50;;;14.16;97.87;95435.09;4990943;28;19989;-51
2022/10/24 00:18:49;;;;;;;;;;;18.00;67.40;;;14.15;98.13;95445.00;4974266;28;20273;-52
2022/10/24 00:21:18;;;;;;;;;;;18.00;67.30;;;14.11;98.12;95452.84;5003028;28;19914;-51
2022/10/24 00:23:46;;;;;;;;;;;18.00;67.30;;;14.10;98.51;95470.00;4982887;28;19917;-49
2022/10/24 00:26:15;;;;;;;;;;;18.00;67.30;;;14.09;98.73;95472.94;4987309;28;20279;-49
2022/10/24 00:28:42;;;;;;;;;;;18.10;67.30;;;14.05;98.12;95494.16;4975375;28;19909;-49
2022/10/24 00:31:15;;;;;;;;;;;18.00;67.50;;;14.07;98.91;95512.59;4988342;28;20334;-49
2022/10/24 00:33:43;;;;;;;;;;;18.10;67.80;;;14.09;99.03;95521.94;5006922;28;19917;-49
2022/10/24 00:36:22;;;;;;;;;;;18.10;67.80;;;14.05;99.32;95518.25;4984751;28;19909;-51
2022/10/24 00:38:50;;;;;;;;;;;18.00;67.80;;;14.04;100.00;95502.47;4958502;28;19941;-49
2022/10/24 00:41:41;;;;;;;;;;;18.00;67.70;;;14.06;99.79;95497.63;4987095;28;19918;-49
2022/10/24 00:44:30;;;;;;;;;;;18.00;67.70;;;13.95;100.00;95491.63;4999344;28;19918;-49
2022/10/24 00:47:16;;;;;;;;;;;18.00;67.60;;;13.92;100.00;95494.09;4999965;28;19910;-54
2022/10/24 00:49:51;;;;;;;;;;;18.00;67.60;;;13.93;100.00;95501.81;4981097;28;19937;-51
2022/10/24 00:52:30;;;;;;;;;;;18.00;67.60;;;13.94;100.00;95490.00;4990098;28;19913;-49
2022/10/24 00:55:00;;;;;;;;;;;18.00;67.60;;;13.86;100.00;95498.69;4978628;28;19909;-49
2022/10/24 00:57:30;;;;;;;;;;;17.90;67.60;;;13.85;100.00;95499.75;4976775;28;20392;-50
2022/10/24 01:00:08;;;;;;;;;;;17.90;67.60;;;13.84;100.00;95492.81;4985135;28;20288;-49
2022/10/24 01:02:33;;;;;;;;;;;17.90;67.70;;;13.83;100.00;95481.31;5006660;28;20405;-49
2022/10/24 01:05:02;;;;;;;;;;;17.90;67.70;;;13.81;100.00;95474.66;5011041;28;19920;-51
2022/10/24 01:07:57;;;;;;;;;;;17.90;67.70;;;13.73;100.00;95478.00;5001560;28;19909;-50
2022/10/24 01:10:59;;;;;;;;;;;17.90;67.60;;;13.70;100.00;95482.03;5021960;28;19912;-49
2022/10/24 01:13:54;;;;;;;;;;;17.80;67.70;;;13.67;100.00;95495.19;5006334;28;19997;-56
2022/10/24 01:16:47;;;;;;;;;;;17.80;67.80;;;13.66;100.00;95491.69;5030356;28;19908;-50
2022/10/24 01:19:31;;;;;;;;;;;17.80;68.00;;;13.62;100.00;95479.97;5012600;28;19909;-49
2022/10/24 01:22:23;;;;;;;;;;;17.70;67.90;;;13.62;100.00;95480.75;5005864;28;19920;-49
2022/10/24 01:25:09;;;;;;;;;;;17.70;68.00;;;13.69;100.00;95496.47;4989657;28;20357;-52
2022/10/24 01:28:28;;;;;;;;;;;17.70;68.10;;;13.74;99.86;95501.00;5030532;28;19908;-51
2022/10/24 01:31:13;;;;;;;;;;;17.80;68.30;;;13.80;97.61;95514.03;5027748;28;20333;-53
2022/10/24 01:34:05;;;;;;;;;;;17.80;68.40;;;14.02;95.28;95523.41;5013093;28;19915;-49
2022/10/24 01:37:27;;;;;;;;;;;17.90;68.70;;;14.15;92.77;95522.69;5023956;28;20007;-50
2022/10/24 01:40:31;;;;;;;;;;;17.90;68.70;;;14.28;92.82;95521.19;5000495;28;19916;-49
2022/10/24 01:43:10;;;;;;;;;;;18.00;68.70;;;14.52;87.24;95538.00;5011766;28;19916;-49
2022/10/24 01:45:43;;;;;;;;;;;18.10;68.80;;;14.62;87.21;95547.00;5012934;28;19909;-51
2022/10/24 01:48:16;;;;;;;;;;;18.20;68.70;;;14.71;85.23;95547.94;5019222;28;19920;-49
2022/10/24 01:50:50;;;;;;;;;;;18.30;68.60;;;14.77;84.44;95522.63;5010589;28;20366;-50
2022/10/24 01:53:18;;;;;;;;;;;18.30;68.40;;;14.87;84.06;95524.34;5026274;28;19924;-49
2022/10/24 01:55:54;;;;;;;;;;;18.40;68.20;;;14.90;81.84;95513.06;4998197;28;20355;-49
2022/10/24 01:58:23;;;;;;;;;;;18.50;68.00;;;14.96;80.49;95495.78;5006593;28;19912;-49
2022/10/24 02:00:53;;;;;;;;;;;18.60;67.80;;;14.98;81.74;95497.09;5019525;28;20396;-49
2022/10/24 02:03:46;;;;;;;;;;;18.60;67.40;;;15.00;83.46;95497.56;4996280;28;20371;-49
2022/10/24 02:06:20;;;;;;;;;;;18.60;67.30;;;14.93;83.60;95481.06;5001566;28;19909;-50
2022/10/24 02:08:57;;;;;;;;;;;18.60;67.20;;;14.91;82.93;95469.03;5011901;28;20003;-49
2022/10/24 02:11:25;;;;;;;;;;;18.50;67.00;;;14.88;85.04;95491.88;4993848;28;19967;-50
2022/10/24 02:14:08;;;;;;;;;;;18.60;67.00;;;14.78;85.42;95508.94;5008206;28;20354;-48
2022/10/24 02:16:36;;;;;;;;;;;18.50;66.90;;;14.72;85.95;95503.94;5034260;28;19909;-47
2022/10/24 02:19:03;;;;;;;;;;;18.50;66.80;;;14.68;87.11;95508.31;5017916;28;19909;-49
2022/10/24 02:21:57;;;;;;;;;;;18.50;66.80;;;14.56;87.79;95506.84;5013076;28;19919;-48
2022/10/24 02:24:50;;;;;;;;;;;18.50;66.70;;;14.50;87.92;95508.00;5021224;28;19924;-48
2022/10/24 02:27:28;;;;;;;;;;;18.50;66.70;;;14.45;88.46;95496.56;5013864;28;19915;-48
2022/10/24 02:30:09;;;;;;;;;;;18.40;66.70;;;14.41;89.53;95493.66;4996614;28;20346;-51
2022/10/24 02:32:44;;;;;;;;;;;18.40;66.70;;;14.37;89.46;95491.84;5016130;28;19939;-48
2022/10/24 02:35:16;;;;;;;;;;;18.40;66.70;;;14.33;89.69;95492.44;5000953;28;19917;-47
2022/10/24 02:37:57;;;;;;;;;;;18.40;66.70;;;14.33;90.03;95502.34;5012525;28;19936;-53
2022/10/24 02:40:26;;;;;;;;;;;18.30;66.70;;;14.26;89.52;95494.69;5016308;28;19915;-56
2022/10/24 02:42:59;;;;;;;;;;;18.30;66.70;;;14.25;88.58;95471.63;4987711;28;20011;-53
2022/10/24 02:45:27;;;;;;;;;;;18.30;66.80;;;14.29;86.86;95461.97;4999677;28;19915;-54
2022/10/24 02:48:01;;;;;;;;;;;18.20;66.80;;;14.35;85.92;95468.00;5014399;28;20491;-57
2022/10/24 02:50:28;;;;;;;;;;;18.30;67.00;;;14.43;84.53;95464.69;5010934;28;20302;-53
2022/10/24 02:52:54;;;;;;;;;;;18.30;67.00;;;14.48;83.55;95466.50;5015681;28;20003;-52
2022/10/24 02:55:20;;;;;;;;;;;18.30;67.00;;;14.53;85.63;95490.56;5016136;28;19992;-55
2022/10/24 02:57:46;;;;;;;;;;;18.30;67.00;;;14.53;85.12;95496.72;5004797;28;19944;-56
2022/10/24 03:00:21;;;;;;;;;;;18.30;66.90;;;14.52;85.54;95491.66;5001488;28;19913;-53
2022/10/24 03:02:49;;;;;;;;;;;18.40;66.90;;;14.52;84.79;95491.66;5031468;28;19917;-54
2022/10/24 03:05:15;;;;;;;;;;;18.40;66.80;;;14.53;82.29;95495.94;5027757;28;20012;-56
2022/10/24 03:07:41;;;;;;;;;;;18.40;66.70;;;14.56;83.35;95498.03;5005842;28;20015;-55
2022/10/24 03:10:07;;;;;;;;;;;18.40;66.70;;;14.61;82.07;95491.81;5031346;28;19909;-54
2022/10/24 03:12:33;;;;;;;;;;;18.40;66.70;;;14.63;82.09;95500.31;5028320;28;19948;-54
2022/10/24 03:14:59;;;;;;;;;;;18.40;66.60;;;14.64;80.32;95491.22;5031704;28;20453;-55
2022/10/24 03:17:25;;;;;;;;;;;18.40;66.60;;;14.69;82.37;95509.88;5010320;28;20257;-51
2022/10/24 03:19:54;;;;;;;;;;;18.40;66.50;;;14.67;82.99;95522.81;5017120;28;19912;-54
2022/10/24 03:22:25;;;;;;;;;;;18.50;66.40;;;14.63;83.52;95513.72;4997239;28;19955;-52
2022/10/24 03:24:54;;;;;;;;;;;18.50;66.30;;;14.58;83.65;95536.84;4986412;28;20320;-54
2022/10/24 03:27:33;;;;;;;;;;;18.50;66.30;;;14.59;80.76;95532.28;5015229;28;20280;-56
2022/10/24 03:30:03;;;;;;;;;;;18.50;66.20;;;14.70;81.57;95530.25;5028371;28;20046;-57
2022/10/24 03:32:29;;;;;;;;;;;18.50;66.00;;;14.72;80.59;95522.72;5014562;28;20426;-57
2022/10/24 03:34:55;;;;;;;;;;;18.50;66.00;;;14.74;81.80;95536.63;5032721;28;19955;-53
2022/10/24 03:37:27;;;;;;;;;;;18.50;65.80;;;14.71;82.35;95529.97;5025325;28;20382;-57
2022/10/24 03:39:59;;;;;;;;;;;18.50;65.70;;;14.69;82.76;95520.59;5015008;28;20026;-54
2022/10/24 03:42:25;;;;;;;;;;;18.40;65.70;;;14.63;83.01;95519.09;5020684;28;20364;-54
2022/10/24 03:44:50;;;;;;;;;;;18.40;65.60;;;14.60;84.33;95520.47;5032643;28;19909;-55
2022/10/24 03:47:22;;;;;;;;;;;18.40;65.60;;;14.55;85.33;95531.28;5030372;28;19912;-57
2022/10/24 03:49:48;;;;;;;;;;;18.30;65.60;;;14.48;85.63;95528.94;4993685;28;19913;-54
2022/10/24 03:52:14;;;;;;;;;;;18.30;65.70;;;14.44;86.78;95537.84;5013577;28;19924;-53
2022/10/24 03:54:39;;;;;;;;;;;18.20;65.70;;;14.33;86.91;95513.88;5021327;28;19909;-52
2022/10/24 03:57:08;;;;;;;;;;;18.20;65.70;;;14.35;86.51;95492.13;4996741;28;19908;-56
2022/10/24 03:59:35;;;;;;;;;;;18.20;65.80;;;14.34;86.02;95480.63;5025647;28;20031;-56
2022/10/24 04:02:02;;;;;;;;;;;18.10;65.80;;;14.30;87.05;95468.91;5027002;28;19942;-55
2022/10/24 04:04:28;;;;;;;;;;;18.10;65.80;;;14.23;89.05;95502.50;5014264;28;19913;-50
2022/10/24 04:06:59;;;;;;;;;;;18.10;65.80;;;14.13;89.46;95492.69;4989468;28;19970;-53
2022/10/24 04:09:25;;;;;;;;;;;18.10;65.80;;;14.12;89.82;95494.59;5030488;28;19962;-52
2022/10/24 04:11:52;;;;;;;;;;;18.10;65.90;;;14.06;89.19;95492.28;5009855;28;19947;-54
2022/10/24 04:14:19;;;;;;;;;;;18.00;65.90;;;14.03;90.25;95490.16;5014096;28;19912;-54
2022/10/24 04:16:45;;;;;;;;;;;18.00;66.10;;;13.98;91.00;95507.13;5031632;28;19919;-54
2022/10/24 04:19:20;;;;;;;;;;;18.00;66.10;;;13.94;85.38;95508.75;4996865;28;19913;-55
2022/10/24 04:21:49;;;;;;;;;;;17.90;66.10;;;14.07;87.86;95504.56;5012824;28;20375;-56
2022/10/24 04:24:21;;;;;;;;;;;17.90;66.30;;;14.09;89.06;95511.25;5018466;28;19998;-56
2022/10/24 04:26:47;;;;;;;;;;;17.90;66.30;;;14.06;89.29;95506.47;5006800;28;20007;-58
2022/10/24 04:29:13;;;;;;;;;;;17.90;66.30;;;14.05;88.41;95504.88;5028991;28;20008;-51
2022/10/24 04:31:41;;;;;;;;;;;17.90;66.30;;;14.06;88.34;95501.09;5030053;28;20011;-48
2022/10/24 04:34:07;;;;;;;;;;;17.90;66.30;;;14.04;88.02;95481.88;5030786;28;19913;-49
2022/10/24 04:36:34;;;;;;;;;;;17.90;66.30;;;14.03;87.05;95469.53;4990776;28;19916;-47
2022/10/24 04:39:00;;;;;;;;;;;17.90;66.30;;;14.06;87.80;95473.53;5031018;28;19908;-47
2022/10/24 04:41:26;;;;;;;;;;;17.90;66.30;;;14.07;88.40;95465.22;5008947;28;19912;-48
2022/10/24 04:44:04;;;;;;;;;;;18.00;66.30;;;14.07;87.39;95459.84;5007423;28;20264;-47
2022/10/24 04:46:30;;;;;;;;;;;18.00;66.30;;;14.06;87.13;95460.94;5030071;28;20260;-48
2022/10/24 04:48:55;;;;;;;;;;;18.00;66.30;;;14.07;87.99;95446.47;5016077;28;19909;-47
2022/10/24 04:51:21;;;;;;;;;;;18.00;66.20;;;14.06;87.90;95438.72;5030996;28;19920;-54
2022/10/24 04:53:53;;;;;;;;;;;18.00;66.20;;;14.03;87.96;95439.28;5025435;28;19935;-47
2022/10/24 04:56:25;;;;;;;;;;;18.00;66.10;;;14.02;87.58;95432.34;4995278;28;19909;-48
2022/10/24 04:58:54;;;;;;;;;;;17.90;66.00;;;14.02;88.04;95449.22;5028470;28;19909;-48
2022/10/24 05:01:20;;;;;;;;;;;17.90;66.00;;;14.02;88.24;95437.72;5020522;28;19958;-48
2022/10/24 05:03:52;;;;;;;;;;;17.90;66.00;;;13.98;88.85;95442.84;5012872;28;19955;-48
2022/10/24 05:06:23;;;;;;;;;;;17.90;66.00;;;13.94;89.35;95432.97;5001414;28;19916;-47
2022/10/24 05:08:52;;;;;;;;;;;18.00;66.00;;;13.91;88.11;95426.31;4996052;28;19940;-47
2022/10/24 05:11:21;;;;;;;;;;;17.90;65.90;;;13.92;88.92;95440.53;5009370;28;19909;-52
2022/10/24 05:13:50;;;;;;;;;;;17.90;66.70;;;13.91;89.19;95447.75;5030129;28;20329;-48
2022/10/24 05:16:15;;;;;;;;;;;17.90;65.90;;;13.77;90.88;95436.97;5029232;28;19913;-47
2022/10/24 05:18:41;;;;;;;;;;;17.90;65.90;;;13.76;92.41;95439.94;5018727;28;19920;-47
2022/10/24 05:21:10;;;;;;;;;;;17.90;65.90;;;13.73;93.27;95443.97;5023902;28;19992;-49
2022/10/24 05:23:42;;;;;;;;;;;17.80;65.70;;;13.61;93.69;95439.03;5023978;28;19913;-47
2022/10/24 05:26:08;;;;;;;;;;;17.80;65.80;;;13.59;94.09;95441.19;5007762;28;20303;-48
2022/10/24 05:28:34;;;;;;;;;;;17.70;65.80;;;13.53;95.03;95438.88;5021288;28;20443;-50
2022/10/24 05:31:00;;;;;;;;;;;17.70;65.80;;;13.50;94.77;95439.44;4999367;28;19948;-51
2022/10/24 05:33:26;;;;;;;;;;;17.60;65.80;;;13.41;94.72;95439.28;5017232;28;20011;-50
2022/10/24 05:35:55;;;;;;;;;;;17.60;65.90;;;13.39;95.13;95439.56;5024691;28;20411;-47
2022/10/24 05:38:27;;;;;;;;;;;17.60;66.00;;;13.35;95.89;95430.53;5012662;28;20411;-48
2022/10/24 05:40:56;;;;;;;;;;;17.50;66.00;;;13.34;95.96;95420.09;5008871;28;20003;-49
2022/10/24 05:43:21;;;;;;;;;;;17.50;66.10;;;13.31;96.02;95429.47;4971797;28;19913;-53
2022/10/24 05:45:48;;;;;;;;;;;17.50;66.10;;;13.26;96.58;95431.44;5010828;28;20385;-47
2022/10/24 05:48:23;;;;;;;;;;;17.50;66.20;;;13.20;97.12;95426.13;4988067;28;19999;-48
2022/10/24 05:50:49;;;;;;;;;;;17.50;66.30;;;13.20;97.72;95419.97;5032793;28;19916;-47
2022/10/24 05:53:17;;;;;;;;;;;17.40;66.30;;;13.15;98.22;95425.38;5013122;28;19912;-48
2022/10/24 05:55:49;;;;;;;;;;;17.40;66.40;;;13.17;97.79;95441.94;5019543;28;19909;-49
2022/10/24 05:58:20;;;;;;;;;;;17.40;66.40;;;13.11;99.31;95446.53;5013926;28;19920;-47
2022/10/24 06:00:50;;;;;;;;;;;17.40;66.50;;;13.10;99.58;95460.16;5018269;28;19940;-48
2022/10/24 06:03:16;;;;;;;;;;;17.40;66.60;;;13.09;99.51;95458.59;5033374;28;19962;-48
2022/10/24 06:05:51;;;;;;;;;;;17.30;66.60;;;13.08;99.59;95489.09;5014615;28;19948;-47
2022/10/24 06:08:23;;;;;;;;;;;17.30;66.60;;;13.10;100.00;95489.59;5028040;28;19919;-47
2022/10/24 06:11:01;;;;;;;;;;;17.30;66.60;;;13.12;99.82;95492.78;5033973;28;19940;-50
2022/10/24 06:13:27;;;;;;;;;;;17.30;66.70;;;13.14;99.71;95504.81;5030677;28;20001;-48
2022/10/24 06:15:53;;;;;;;;;;;17.30;66.80;;;13.15;99.17;95478.84;4999921;28;19955;-53
2022/10/24 06:18:19;;;;;;;;;;;17.30;66.90;;;13.17;99.44;95493.53;5026114;28;19908;-48
2022/10/24 06:20:47;;;;;;;;;;;17.30;66.90;;;13.19;100.00;95486.03;5008080;28;19919;-46
2022/10/24 06:23:16;;;;;;;;;;;17.30;66.90;;;13.21;100.00;95472.38;5030216;28;19913;-46
2022/10/24 06:25:42;;;;;;;;;;;17.30;66.90;;;13.15;100.00;95454.78;5008030;28;19912;-45
2022/10/24 06:28:08;;;;;;;;;;;17.30;66.90;;;13.15;100.00;95449.44;5032057;28;20391;-48
2022/10/24 06:30:40;;;;;;;;;;;17.30;67.00;;;13.13;100.00;95455.06;5012767;28;19963;-45
2022/10/24 06:33:14;;;;;;;;;;;17.30;67.00;;;13.11;100.00;95464.47;5027136;28;19908;-47
2022/10/24 06:35:40;;;;;;;;;;;17.30;67.10;;;13.10;100.00;95468.19;5020665;28;19971;-47
2022/10/24 06:38:06;;;;;;;;;;;17.20;67.10;;;13.09;100.00;95469.28;5021047;28;19909;-48
2022/10/24 06:40:32;;;;;;;;;;;17.20;67.20;;;13.05;100.00;95463.72;5017078;28;19916;-49
2022/10/24 06:42:58;;;;;;;;;;;17.20;67.20;;;13.00;100.00;95468.31;5003847;28;19913;-48
2022/10/24 06:45:25;;;;;;;;;;;17.20;67.20;;;13.03;100.00;95489.13;4993704;28;20299;-52
2022/10/24 06:47:53;;;;;;;;;;;17.20;67.30;;;13.05;100.00;95484.31;4990331;28;19909;-48
2022/10/24 06:50:22;;;;;;;;;;;17.20;67.40;;;13.05;100.00;95468.25;5025198;28;19908;-48
2022/10/24 06:52:54;;;;;;;;;;;17.20;67.40;;;12.90;100.00;95478.00;4998703;28;19948;-49
2022/10/24 06:55:23;;;;;;;;;;;17.20;67.40;;;12.87;100.00;95483.91;5015373;28;19939;-48
2022/10/24 06:57:58;;;;;;;;;;;17.20;67.50;;;12.94;100.00;95495.09;5005087;28;20018;-48
2022/10/24 07:00:27;;;;;;;;;;;17.10;67.50;;;12.96;100.00;95503.63;5005971;28;19944;-47
2022/10/24 07:02:59;;;;;;;;;;;17.10;67.60;;;12.94;100.00;95500.44;5015147;28;19916;-52
2022/10/24 07:05:25;;;;;;;;;;;17.10;67.70;;;12.98;100.00;95508.69;5028945;28;19917;-53
2022/10/24 07:07:50;;;;;;;;;;;17.10;67.80;;;12.97;100.00;95488.38;5007033;28;19908;-52
2022/10/24 07:10:22;;;;;;;;;;;17.10;67.80;;;12.82;100.00;95472.50;5015035;28;19947;-47
2022/10/24 07:12:54;;;;;;;;;;;17.20;67.90;;;12.87;100.00;95507.19;5029152;28;19943;-47
2022/10/24 07:15:26;;;;;;;;;;;17.10;67.80;;;12.83;100.00;95466.06;5002183;28;19909;-47
2022/10/24 07:17:54;;;;;;;;;;;17.10;67.80;;;12.93;100.00;95487.34;5025304;28;20291;-47
2022/10/24 07:20:26;;;;;;;;;;;17.20;68.00;;;12.95;100.00;95483.31;5024777;28;19915;-47
2022/10/24 07:22:52;;;;;;;;;;;17.20;68.00;;;13.02;100.00;95482.19;5032348;28;20012;-47
2022/10/24 07:25:18;;;;;;;;;;;17.20;68.10;;;13.06;100.00;95485.88;5020231;28;19999;-50
2022/10/24 07:27:43;;;;;;;;;;;17.20;68.10;;;13.10;100.00;95492.25;5031220;28;20367;-47
2022/10/24 07:30:17;;;;;;;;;;;17.20;68.10;;;13.13;100.00;95497.88;5022231;28;19909;-51
2022/10/24 07:32:43;;;;;;;;;;;17.30;68.10;;;13.17;100.00;95493.53;5011259;28;19908;-50
2022/10/24 07:35:11;;;;;;;;;;;17.30;68.10;;;13.10;100.00;95473.53;5030493;28;19913;-50
2022/10/24 07:37:46;;;;;;;;;;;17.40;68.10;;;13.15;100.00;95508.28;4995704;28;20435;-49
2022/10/24 07:40:12;;;;;;;;;;;17.40;68.10;;;13.19;100.00;95501.25;5032291;28;19913;-50
2022/10/24 07:42:41;;;;;;;;;;;17.50;68.00;;;13.23;100.00;95494.28;4988309;28;20402;-55
2022/10/24 07:45:08;;;;;;;;;;;17.50;68.00;;;13.28;100.00;95483.56;5011305;28;19916;-52
2022/10/24 07:47:37;;;;;;;;;;;17.60;68.10;;;13.34;100.00;95486.97;5023077;28;19925;-54
2022/10/24 07:50:07;;;;;;;;;;;17.60;68.00;;;13.39;100.00;95527.06;5013378;28;20048;-48
2022/10/24 07:52:38;;;;;;;;;;;17.70;68.10;;;13.42;100.00;95527.28;4998408;28;19967;-51
2022/10/24 07:55:07;;;;;;;;;;;17.70;68.10;;;13.46;100.00;95526.72;5029257;28;19932;-50
2022/10/24 07:57:54;;;;;;;;;;;17.70;68.10;;;13.42;100.00;95531.84;5014522;28;19916;-48
2022/10/24 08:00:21;;;;;;;;;;;17.70;68.10;;;13.43;100.00;95544.94;5025768;28;19974;-48
2022/10/24 08:02:59;;;;;;;;;;;17.70;68.10;;;13.44;100.00;95548.41;5004997;28;19928;-50
2022/10/24 08:05:25;;;;;;;;;;;17.70;68.10;;;13.48;100.00;95567.38;5000878;28;19908;-55
2022/10/24 08:07:50;;;;;;;;;;;17.70;68.10;;;13.50;100.00;95574.03;5007741;28;19912;-55
2022/10/24 08:10:22;;;;;;;;;;;17.80;68.20;;;13.51;100.00;95586.34;5013521;28;19912;-50
2022/10/24 08:12:54;;;;;;;;;;;17.80;68.20;;;13.44;100.00;95588.53;4999654;28;19909;-57
2022/10/24 08:15:26;;;;;;;;;;;17.80;68.10;;;13.41;100.00;95583.75;5031732;28;19936;-52
2022/10/24 08:17:53;;;;;;;;;;;17.80;68.10;;;13.43;100.00;95598.44;5009521;28;19913;-51
2022/10/24 08:20:25;;;;;;;;;;;17.70;68.10;;;13.48;100.00;95604.84;5024950;28;19908;-52
2022/10/24 08:22:53;;;;;;;;;;;17.70;68.20;;;13.45;100.00;95616.13;5031561;28;19921;-52
2022/10/24 08:25:25;;;;;;;;;;;17.70;68.30;;;13.36;100.00;95613.25;5004828;28;19912;-53
2022/10/24 08:27:53;;;;;;;;;;;17.60;68.30;;;13.41;100.00;95621.19;5013786;28;19909;-52
2022/10/24 08:30:31;;;;;;;;;;;17.60;68.40;;;13.45;100.00;95624.94;5018421;28;20005;-48
2022/10/24 08:32:57;;;;;;;;;;;17.60;68.40;;;13.47;100.00;95620.06;5012984;28;19916;-50
2022/10/24 08:35:22;;;;;;;;;;;17.70;68.50;;;13.42;100.00;95622.81;5010446;28;20019;-54
2022/10/24 08:37:51;;;;;;;;;;;17.70;68.60;;;13.47;100.00;95636.13;5030519;28;20454;-49
2022/10/24 08:40:19;;;;;;;;;;;17.70;68.50;;;13.51;100.00;95636.41;5031034;28;20295;-49
2022/10/24 08:42:48;;;;;;;;;;;17.70;68.50;;;13.52;100.00;95643.34;5006214;28;19916;-51
2022/10/24 08:46:02;;;;;;;;;;;17.70;68.50;;;13.57;100.00;95629.88;5009758;28;19920;-54
2022/10/24 08:49:11;;;;;;;;;;;17.80;68.60;;;13.63;100.00;95626.09;5007695;28;20280;-55
2022/10/24 08:52:32;;;;;;;;;;;17.90;68.60;;;13.76;100.00;95628.13;5001977;28;19913;-51
2022/10/24 08:55:24;;;;;;;;;;;18.00;68.50;;;13.79;100.00;95634.78;5013486;28;20007;-47
2022/10/24 08:58:00;;;;;;;;;;;18.10;68.50;;;13.87;100.00;95626.91;5015543;28;19912;-53
2022/10/24 09:00:35;;;;;;;;;;;18.20;68.50;;;13.93;100.00;95622.31;4984146;28;20109;-50
2022/10/24 09:03:26;;;;;;;;;;;18.30;68.40;;;13.97;100.00;95623.31;4990144;28;20016;-49
2022/10/24 09:06:00;;;;;;;;;;;18.30;68.30;;;14.03;100.00;95624.88;4995107;28;19915;-55
2022/10/24 09:08:45;;;;;;;;;;;18.40;68.30;;;14.06;100.00;95629.66;4993425;28;19948;-51
2022/10/24 09:11:41;;;;;;;;;;;18.40;68.30;;;14.07;100.00;95623.25;4974132;28;19975;-55
2022/10/24 09:14:32;;;;;;;;;;;18.50;68.30;;;14.06;100.00;95612.78;4989788;28;20446;-55
2022/10/24 09:17:11;;;;;;;;;;;18.50;68.30;;;14.13;100.00;95626.63;4969262;28;20402;-52
2022/10/24 09:19:38;;;;;;;;;;;18.40;68.40;;;13.99;100.00;95620.38;4991504;28;20043;-55
2022/10/24 09:22:09;;;;;;;;;;;18.50;68.30;;;14.06;100.00;95610.91;4984261;28;20340;-50
2022/10/24 09:24:57;;;;;;;;;;;18.50;68.40;;;14.03;100.00;95616.03;4989677;28;20330;-49
2022/10/24 09:27:39;;;;;;;;;;;18.60;68.40;;;14.08;100.00;95618.66;4984684;28;19949;-52
2022/10/24 09:30:15;;;;;;;;;;;18.50;68.30;;;14.16;100.00;95615.34;4984617;28;19914;-52
2022/10/24 09:32:42;;;;;;;;;;;18.50;68.30;;;14.13;100.00;95615.91;4971182;28;19909;-53
2022/10/24 09:35:20;;;;;;;;;;;18.60;68.30;;;14.03;97.56;95619.50;4999433;28;19909;-50
2022/10/24 09:38:17;;;;;;;;;;;18.60;68.10;;;14.05;98.06;95638.00;4986983;28;19929;-51
2022/10/24 09:40:54;;;;;;;;;;;18.50;68.20;;;14.02;96.10;95625.97;4981933;28;19999;-52
2022/10/24 09:43:32;;;;;;;;;;;18.30;68.10;;;13.99;96.46;95631.88;4990991;28;19921;-51
2022/10/24 09:46:25;;;;;;;;;;;18.30;68.20;;;13.95;95.77;95630.06;4965609;28;19909;-50
2022/10/24 09:49:14;;;;;;;;;;;18.30;68.20;;;13.95;97.79;95622.84;5005861;28;19913;-52
2022/10/24 09:52:18;;;;;;;;;;;18.20;68.10;;;13.92;98.49;95627.97;4987892;28;20288;-53
2022/10/24 09:54:46;;;;;;;;;;;18.10;68.10;;;13.88;98.89;95651.81;4999017;28;19913;-53
2022/10/24 09:57:15;;;;;;;;;;;18.10;68.20;;;13.79;100.00;95681.09;5005149;28;27881;-50
2022/10/24 09:59:48;;;;;;;;;;;18.00;68.20;;;13.72;100.00;95682.50;4989991;28;20381;-51
2022/10/24 10:02:21;;;;;;;;;;;18.00;68.20;;;13.67;100.00;95688.69;4977954;28;19918;-50
2022/10/24 10:05:03;;;;;;;;;;;17.90;68.20;;;13.59;99.95;95698.13;4985676;28;19918;-53
2022/10/24 10:07:47;;;;;;;;;;;17.90;68.30;;;13.59;100.00;95716.06;4985277;28;20013;-50
2022/10/24 10:10:31;;;;;;;;;;;17.80;68.40;;;13.54;100.00;95740.19;4968891;28;19921;-55
2022/10/24 10:13:22;;;;;;;;;;;17.70;68.40;;;13.49;100.00;95741.03;4966607;28;19921;-49
2022/10/24 10:16:04;;;;;;;;;;;17.70;69.40;;;13.29;100.00;95754.56;4929794;29;19916;-53
2022/10/24 10:18:40;;;;;;;;;;;17.60;68.60;;;13.17;100.00;95774.38;4976713;28;19910;-53
2022/10/24 10:21:20;;;;;;;;;;;17.50;68.70;;;13.04;100.00;95787.56;4968035;28;19962;-53
2022/10/24 10:23:56;;;;;;;;;;;17.40;68.70;;;13.06;100.00;95796.06;4945894;28;19914;-52
2022/10/24 10:26:40;;;;;;;;;;;17.30;68.80;;;13.01;100.00;95788.09;4982651;28;19910;-52
2022/10/24 10:29:22;;;;;;;;;;;17.20;69.00;;;13.05;100.00;95775.78;4971374;28;19971;-51
2022/10/24 10:32:29;;;;;;;;;;;17.20;69.10;;;13.01;100.00;95772.06;4971039;28;19913;-53
2022/10/24 10:35:22;;;;;;;;;;;17.20;69.10;;;13.02;100.00;95779.00;4954547;28;19910;-55
2022/10/24 10:38:37;;;;;;;;;;;17.20;69.10;;;13.01;100.00;95780.06;4919299;28;19960;-55
2022/10/24 10:41:37;;;;;;;;;;;17.20;69.00;;;13.05;100.00;95765.88;4973097;28;20001;-52
2022/10/24 10:44:43;;;;;;;;;;;17.30;69.10;;;13.06;100.00;95758.63;4974308;28;19967;-51
2022/10/24 10:47:43;;;;;;;;;;;17.30;69.00;;;13.10;100.00;95735.63;4989574;28;19945;-55
2022/10/24 10:50:55;;;;;;;;;;;17.30;69.10;;;13.09;100.00;95700.06;4978733;28;19910;-51
2022/10/24 10:53:42;;;;;;;;;;;17.40;69.10;;;13.19;100.00;95702.69;4963636;28;19996;-50
2022/10/24 10:57:07;;;;;;;;;;;17.60;69.10;;;13.21;100.00;95702.38;4973302;28;19913;-53
2022/10/24 11:00:01;;;;;;;;;;;17.70;68.90;;;13.33;100.00;95672.66;4973185;28;20396;-49
2022/10/24 11:03:08;;;;;;;;;;;17.70;68.90;;;13.40;100.00;95660.53;5006289;28;20458;-55
2022/10/24 11:06:20;;;;;;;;;;;17.80;68.90;;;13.52;100.00;95651.38;4959894;28;20003;-52
2022/10/24 11:09:00;;;;;;;;;;;18.00;68.80;;;13.61;100.00;95652.34;4999088;28;20387;-52
2022/10/24 11:11:42;;;;;;;;;;;18.10;68.60;;;13.60;99.89;95651.56;5004917;28;19920;-50
2022/10/24 11:14:32;;;;;;;;;;;18.10;68.60;;;13.52;98.92;95660.19;4991511;28;20433;-52
2022/10/24 11:17:22;;;;;;;;;;;18.10;68.50;;;13.46;99.41;95668.53;5001717;28;19913;-53
2022/10/24 11:20:04;;;;;;;;;;;18.00;68.50;;;13.51;100.00;95680.00;4986656;28;20027;-52
2022/10/24 11:23:04;;;;;;;;;;;18.00;68.60;;;13.51;100.00;95663.16;5010357;28;20299;-51
2022/10/24 11:25:56;;;;;;;;;;;17.90;68.70;;;13.54;100.00;95676.75;4991167;28;20003;-50
2022/10/24 11:28:45;;;;;;;;;;;17.90;68.70;;;13.56;100.00;95669.25;4986145;28;20096;-51
2022/10/24 11:31:26;;;;;;;;;;;17.90;68.60;;;13.57;100.00;95676.22;4998868;28;20352;-49
2022/10/24 11:34:04;;;;;;;;;;;17.90;68.60;;;13.39;100.00;95677.69;4982937;28;19909;-51
2022/10/24 11:37:11;;;;;;;;;;;18.00;68.60;;;13.33;100.00;95667.31;4992715;28;20666;-49
2022/10/24 11:40:05;;;;;;;;;;;17.90;68.40;;;13.40;100.00;95676.59;4992302;28;20011;-53
2022/10/24 11:43:05;;;;;;;;;;;17.90;68.50;;;13.41;100.00;95672.84;4991418;28;19912;-50
2022/10/24 11:45:59;;;;;;;;;;;17.90;68.60;;;13.44;100.00;95679.50;5010933;28;19917;-50
2022/10/24 11:48:48;;;;;;;;;;;17.90;68.70;;;13.41;100.00;95662.16;4994399;28;19937;-53
2022/10/24 11:51:57;;;;;;;;;;;17.90;68.60;;;13.35;100.00;95643.72;4976246;28;20468;-50
2022/10/24 11:54:50;;;;;;;;;;;17.90;68.60;;;13.31;100.00;95642.69;4954558;28;19909;-51